New Harbor, ME

43° 52' 34"N, 69° 29' 40"W, Elevation 65 ft.
Eastern Time

Hourly observations for the last 72 hours

Date Time Temperature (°F) Humi-
dity

(%)
Wind
(mph)
Pressure Rain (in) Sun
(W/m2)
ET
(in)
Air Dew 6 Hour 1 Hr 3 Hr 6 Hr Day
Alt
(in)
Sea
Level

(mb)
Max Min
3 00:00 43.3 41.7 94 NE 9 G 19 29.43 996.7 0.03 1.00 0 0.018
2 23:00 42.9 41.3 94 NE 8 G 18 29.44 996.9 0.05 0.09 0.97 0 0.018
2 22:00 43.6 42.0 94 NNE 9 G 17 29.43 996.7 0.03 0.92 0 0.018
2 21:00 44.9 43.6 95 NNE 7 G 13 29.44 997.0 0.01 0.89 0 0.018
2 20:00 45.2 43.9 45.3 42.3 95 NE 9 G 19 29.43 996.6 0.01 0.17 0.54 0.88 0 0.018
2 19:00 45.1 43.8 95 NNE 8 G 18 29.41 995.9 0.05 0.87 0 0.018
2 18:00 44.5 43.2 95 N 6 G 11 29.41 996.0 0.11 0.82 12 0.017
2 17:00 44.2 42.9 95 N 3 G 11 29.40 995.7 0.11 0.37 0.71 30 0.016
2 16:00 43.5 42.2 95 N 8 G 18 29.40 995.6 0.14 0.60 35 0.015
2 15:00 42.6 41.0 94 NNW 6 G 18 29.40 995.8 0.12 0.46 51 0.013
2 14:00 42.3 40.7 42.3 38.6 94 N 7 G 15 29.42 996.2 0.06 0.15 0.24 0.34 132 0.011
2 13:00 41.4 39.5 93 N 8 G 16 29.43 996.6 0.06 0.28 84 0.009
2 12:00 40.8 38.9 93 N 9 G 21 29.45 997.3 0.03 0.22 127 0.007
2 11:00 40.1 38.2 93 N 9 G 18 29.46 997.7 0.05 0.09 0.19 109 0.005
2 10:00 39.4 37.5 93 N 6 G 16 29.48 998.4 0.03 0.14 56 0.003
2 09:00 39.3 37.4 93 NNE 6 G 15 29.50 998.9 0.01 0.11 93 0.001
2 08:00 38.6 36.8 38.6 37.0 93 N 5 G 16 29.50 999.2 0.02 0.06 0.08 0.10 84 0.000
2 07:00 37.9 36.1 93 N 7 G 15 29.52 999.8 0.03 0.08 14 0.000
2 06:00 37.7 35.9 93 N 6 G 15 29.52 999.6 0.01 0.05 0 0.000
2 05:00 37.5 35.7 93 N 6 G 13 29.53 1000.1 0.02 0.04 0 0.000
2 04:00 37.2 35.4 93 N 6 G 15 29.54 1000.3 0.01 0.04 0 0.000
2 03:00 37.1 35.3 93 N 6 G 16 29.56 1001.2 0.01 0.03 0 0.000
2 02:00 37.3 35.5 40.2 37.3 93 N 9 G 17 29.59 1002.0 0.01 0.05 0.08 0.02 0 0.000
2 01:00 37.5 35.7 93 N 7 G 15 29.62 1003.1 0.01 0.01 0 0.000
2 00:00 37.4 35.3 92 NNW 5 G 15 29.65 1004.2 0.03 0.06 0 0.059
1 23:00 37.6 35.2 91 N 7 G 14 29.68 1005.0 0.03 0.03 0.03 0 0.059
1 22:00 38.0 35.0 89 N 5 G 10 29.69 1005.5 0.00 0 0.058
1 21:00 39.5 34.5 82 N 7 G 19 29.70 1005.8 0.00 0 0.057
1 20:00 40.1 34.7 44.6 40.1 81 NNE 5 G 13 29.72 1006.4 0.00 0 0.056
1 19:00 41.2 34.5 77 NNE 5 G 15 29.72 1006.4 0.00 0 0.055
1 18:00 42.8 34.4 72 N 6 G 12 29.73 1006.6 0.00 44 0.053
1 17:00 43.2 35.1 73 N 4 G 11 29.74 1007.0 0.00 83 0.050
1 16:00 43.4 34.3 70 NNE 7 G 12 29.74 1007.2 0.00 148 0.046
1 15:00 44.3 34.4 68 NNE 4 G 13 29.75 1007.4 0.00 253 0.041
1 14:00 43.1 34.0 44.3 34.6 70 NE 8 G 15 29.77 1008.1 0.00 218 0.035
1 13:00 42.9 33.8 70 ENE 9 G 14 29.78 1008.5 0.00 294 0.027
1 12:00 42.9 34.5 72 E 6 G 14 29.80 1009.1 0.00 455 0.020
1 11:00 39.6 32.0 74 NE 6 G 13 29.83 1010.3 0.00 274 0.014
1 10:00 38.4 31.8 77 ENE 8 G 15 29.83 1010.3 0.00 334 0.009
1 09:00 37.3 30.8 77 NNE 9 G 13 29.84 1010.5 0.00 155 0.006
1 08:00 34.6 29.7 34.7 29.3 82 NE 4 G 9 29.86 1011.1 0.00 114 0.005
1 07:00 33.7 28.5 81 NE 2 G 8 29.88 1011.8 0.00 42 0.005
1 06:00 32.8 27.3 80 NNE 1 G 3 29.90 1012.5 0.00 0 0.004
1 05:00 33.0 26.6 77 NNE 2 G 4 29.89 1012.1 0.00 0 0.003
1 04:00 32.0 26.2 79 N 2 G 5 29.89 1012.2 0.00 0 0.003
1 03:00 30.8 25.4 80 NNE 2 G 4 29.91 1012.7 0.00 0 0.002
1 02:00 34.1 26.7 38.0 32.8 74 NE 3 G 11 29.93 1013.6 0.00 0 0.001
1 01:00 34.3 30.0 84 NE 2 G 5 29.94 1014.0 0.00 0 0.000
1 00:00 37.2 31.6 80 ENE 1 G 5 29.95 1014.3 0.00 0 0.061
31 23:00 37.7 31.5 78 ENE 2 G 5 29.97 1015.0 0.00 0 0.060
31 22:00 37.3 30.1 75 NE 2 G 4 29.98 1015.4 0.00 0 0.059
31 21:00 36.0 29.8 78 N 2 G 6 29.98 1015.1 0.00 0 0.059
31 20:00 33.4 28.2 44.2 33.4 81 NNW 2 G 4 29.98 1015.4 0.00 0 0.059
31 19:00 38.6 28.6 67 N 2 G 5 29.99 1015.7 0.00 7 0.058
31 18:00 41.5 29.5 62 NE 7 G 12 30.00 1016.0 0.00 47 0.056
31 17:00 42.1 31.6 66 ENE 6 G 14 29.99 1015.4 0.00 144 0.051
31 16:00 42.3 31.0 64 NE 3 G 14 29.98 1015.4 0.00 536 0.042
31 15:00 41.6 30.3 64 NE 9 G 15 29.98 1015.1 0.00 640 0.030
31 14:00 39.8 30.8 39.9 29.8 70 N 6 G 15 29.99 1015.6 0.00 872 0.019
31 13:00 35.9 28.4 74 N 3 G 14 30.02 1016.6 0.00 877 0.012
31 12:00 33.9 27.5 77 NE 5 G 11 30.04 1017.3 0.00 369 0.008
31 11:00 31.4 25.3 78 NNE 8 G 13 30.06 1018.1 0.00 213 0.005
31 10:00 30.8 25.4 80 NE 7 G 13 30.07 1018.5 0.00 186 0.003
31 09:00 30.6 26.1 83 NNE 5 G 11 30.08 1018.7 0.00 135 0.001
31 08:00 29.9 25.9 32.8 29.8 85 NNE 5 G 11 30.07 1018.3 0.00 69 0.000
31 07:00 29.9 26.5 87 NNE 5 G 10 30.07 1018.2 0.00 19 0.000
31 06:00 30.2 27.1 88 NNE 5 G 10 30.05 1017.6 0.00 0 0.000
31 05:00 30.8 27.9 89 NNE 5 G 12 30.03 1017.1 0.00 0 0.000
31 04:00 31.4 28.8 90 N 4 G 13 30.03 1017.0 0.00 0 0.000
31 03:00 32.3 30.0 91 N 3 G 9 30.04 1017.3 0.00 0 0.000
31 02:00 32.7 30.6 33.0 32.5 92 N 4 G 10 30.05 1017.7 0.00 0 0.000
31 01:00 32.6 30.8 93 N 3 G 8 30.05 1017.8 0.00 0 0.000

Data generated by WxSolution Version 1.9.1.8, Build 2020.02.16.